Terminal Aerodrome Forecast
Issued by NWS Omaha/Valley, NE

Home | Current Version | Previous Version | Text Only | Print | Product List | Glossary On
Versions: 1 2 3 4 5 6 7 8 9 10 11 12 13 14 15 16 17 18 19 20 21 22 23 24 25 26 27 28 29 30 31 32 33 34
000
FTUS43 KOAX 232320
TAFOFK
TAF
KOFK 232320Z 2400/2424 34017G26KT P6SM OVC010
      TEMPO 2402/2406 4SM -SN OVC007
     FM240600 33016G24KT 6SM BR OVC007
     FM241200 32012KT P6SM OVC015
     FM241800 32010KT P6SM SCT025=

USA.gov is the U.S. government's official web portal to all federal, state and local government web resources and services.